This is the latest recevied weather packets stored in our database for station/object DM0MR. If no packets are shown the sender has not sent any weather packets the latest 10 day(s).
| Time | Temp. | Humidity | Pressure | Rain* | Wind** | Luminosity | Snow |
|---|---|---|---|---|---|---|---|
| 1777588890 | 6.67° C | 76% | 1019.6 hPa | 0 mm | - | - | - |
| 1777587991 | 6.67° C | 75% | 1019.6 hPa | 0 mm | - | - | - |
| 1777587090 | 7.22° C | 74% | 1019.6 hPa | 0 mm | - | - | - |
| 1777586192 | 7.22° C | 74% | 1019.6 hPa | 0 mm | - | - | - |
| 1777585290 | 7.22° C | 74% | 1019.6 hPa | 0 mm | - | - | - |
| 1777584391 | 7.22° C | 73% | 1019.4 hPa | 0 mm | - | - | - |
| 1777583490 | 7.22° C | 73% | 1019.5 hPa | 0 mm | - | - | - |
| 1777582590 | 7.78° C | 72% | 1019.4 hPa | 0 mm | - | - | - |
| 1777581691 | 7.78° C | 72% | 1019.5 hPa | 0 mm | - | - | - |
| 1777580790 | 7.78° C | 71% | 1019.5 hPa | 0 mm | - | - | - |
| 1777579893 | 8.33° C | 69% | 1019.6 hPa | 0 mm | - | - | - |
| 1777578990 | 8.89° C | 68% | 1019.3 hPa | 0 mm | - | - | - |
| 1777578090 | 9.44° C | 66% | 1019.4 hPa | 0 mm | - | - | - |
| 1777577191 | 9.44° C | 65% | 1019.3 hPa | 0 mm | - | - | - |
| 1777576290 | 10° C | 63% | 1019.2 hPa | 0 mm | - | - | - |
| 1777574490 | 11.67° C | 54% | 1018.9 hPa | 0 mm | - | - | - |
| 1777573590 | 13.33° C | 48% | 1019 hPa | 0 mm | - | - | - |
| 1777572690 | 14.44° C | 44% | 1019.1 hPa | 0 mm | - | - | - |
| 1777571790 | 15° C | 44% | 1019 hPa | 0 mm | - | - | - |
| 1777570891 | 15° C | 42% | 1019.1 hPa | 0 mm | - | - | - |
| 1777569989 | 15.56° C | 42% | 1019.1 hPa | 0 mm | - | - | - |
| 1777569090 | 15.56° C | 41% | 1019.1 hPa | 0 mm | - | - | - |
| 1777566390 | 16.11° C | 38% | 1019.4 hPa | 0 mm | - | - | - |
| 1777565490 | 16.67° C | 35% | 1019.6 hPa | 0 mm | - | - | - |
| 1777563690 | 16.11° C | 36% | 1019.4 hPa | 0 mm | - | - | - |
* Rain latest hour (hover to see other rain measurements)
** Current wind speed in m/s (hover to see current wind gust speed)